createdAt,value
2023-04-24T00:00:24.998Z,8.00
2023-04-24T00:02:26.714Z,5.75
2023-04-24T00:04:28.729Z,8.50
2023-04-24T00:06:30.743Z,10.00
2023-04-24T00:08:32.387Z,10.25
2023-04-24T00:10:34.055Z,8.25
2023-04-24T00:12:35.797Z,6.25
2023-04-24T00:14:37.621Z,9.00
2023-04-24T00:16:40.662Z,10.75
2023-04-24T00:18:42.282Z,3.00
2023-04-24T00:20:43.925Z,8.75
2023-04-24T00:22:45.482Z,8.25
2023-04-24T00:24:47.223Z,10.75
2023-04-24T00:26:48.902Z,9.00
2023-04-24T00:28:50.810Z,9.00
2023-04-24T00:30:52.325Z,10.75
2023-04-24T00:32:55.309Z,10.00
2023-04-24T00:34:56.849Z,10.00
2023-04-24T00:36:58.442Z,7.25
2023-04-24T00:38:59.977Z,9.50
2023-04-24T00:41:01.660Z,7.25
2023-04-24T00:43:03.497Z,11.00
2023-04-24T00:45:06.499Z,7.00
2023-04-24T00:47:08.417Z,9.00
2023-04-24T00:49:12.766Z,8.75
2023-04-24T00:51:14.274Z,7.25
2023-04-24T00:53:16.188Z,9.25
2023-04-24T00:55:18.252Z,9.25
2023-04-24T00:57:20.244Z,7.00
2023-04-24T00:59:21.941Z,10.75
2023-04-24T01:01:23.716Z,7.50
2023-04-24T01:03:27.667Z,5.25
2023-04-24T01:05:30.929Z,7.25
2023-04-24T01:07:32.815Z,7.25
2023-04-24T01:09:34.413Z,9.75
2023-04-24T01:11:35.988Z,9.75
2023-04-24T01:13:37.608Z,11.75
2023-04-24T01:15:39.137Z,10.75
2023-04-24T01:17:40.784Z,10.75
2023-04-24T01:19:42.640Z,11.50
2023-04-24T01:21:48.527Z,5.75
2023-04-24T01:23:52.159Z,9.50
2023-04-24T01:25:53.845Z,10.25
2023-04-24T01:27:55.467Z,10.25
2023-04-24T01:29:57.379Z,9.75
2023-04-24T01:31:59.352Z,12.00
2023-04-24T01:34:01.626Z,7.50
2023-04-24T01:36:03.866Z,11.75
2023-04-24T01:38:05.727Z,8.75
2023-04-24T01:40:09.946Z,11.25
2023-04-24T01:42:13.019Z,11.75
2023-04-24T01:44:15.614Z,11.25
2023-04-24T01:46:17.553Z,11.25
2023-04-24T01:48:19.346Z,7.75
2023-04-24T01:50:21.099Z,12.00
2023-04-24T01:52:23.449Z,10.00
2023-04-24T01:54:25.034Z,12.75
2023-04-24T01:56:30.362Z,10.75
2023-04-24T01:58:32.809Z,8.50
2023-04-24T02:00:34.436Z,6.75
2023-04-24T02:02:36.289Z,12.25
2023-04-24T02:04:38.307Z,9.00
2023-04-24T02:06:39.896Z,10.50
2023-04-24T02:08:41.822Z,5.25
2023-04-24T02:10:43.356Z,9.00
2023-04-24T02:12:46.333Z,9.75
2023-04-24T02:14:47.936Z,9.75
2023-04-24T02:16:49.545Z,12.75
2023-04-24T02:18:51.231Z,8.00
2023-04-24T02:20:52.789Z,8.75
2023-04-24T02:22:54.458Z,10.75
2023-04-24T02:24:56.611Z,11.25
2023-04-24T02:26:58.249Z,11.00
2023-04-24T02:29:01.158Z,8.00
2023-04-24T02:31:02.702Z,12.00
2023-04-24T02:33:04.347Z,9.00
2023-04-24T02:35:07.143Z,11.00
2023-04-24T02:37:08.754Z,11.25
2023-04-24T02:39:10.304Z,9.75
2023-04-24T02:41:12.295Z,9.75
2023-04-24T02:43:14.032Z,13.00
2023-04-24T02:45:17.164Z,10.00
2023-04-24T02:47:18.756Z,9.00
2023-04-24T02:49:20.461Z,8.50
2023-04-24T02:51:22.032Z,12.00
2023-04-24T02:53:23.613Z,10.25
2023-04-24T02:55:25.219Z,10.50
2023-04-24T02:57:27.012Z,11.00
2023-04-24T02:59:28.667Z,11.00
2023-04-24T03:01:31.633Z,11.75
2023-04-24T03:03:33.382Z,11.00
2023-04-24T03:05:35.162Z,10.00
2023-04-24T03:07:37.220Z,10.50
2023-04-24T03:09:38.703Z,9.00
2023-04-24T03:11:40.632Z,11.75
2023-04-24T03:13:42.157Z,9.00
2023-04-24T03:15:44.372Z,10.00
2023-04-24T03:17:47.670Z,12.00
2023-04-24T03:19:52.245Z,9.25
2023-04-24T03:21:53.887Z,10.50
2023-04-24T03:23:55.572Z,13.00
2023-04-24T03:25:57.237Z,12.25
2023-04-24T03:27:58.864Z,10.75
2023-04-24T03:30:00.445Z,11.50
2023-04-24T03:32:02.189Z,11.25
2023-04-24T03:34:05.231Z,17.00
2023-04-24T03:36:06.995Z,15.00
2023-04-24T03:38:08.573Z,14.75
2023-04-24T03:40:10.739Z,11.25
2023-04-24T03:42:12.334Z,13.25
2023-04-24T03:44:14.218Z,11.00
2023-04-24T03:46:15.977Z,11.00
2023-04-24T03:48:17.820Z,10.75
2023-04-24T03:50:20.806Z,13.25
2023-04-24T03:52:22.387Z,10.75
2023-04-24T03:54:24.018Z,17.00
2023-04-24T03:56:28.303Z,10.75
2023-04-24T03:58:29.923Z,11.75
2023-04-24T04:00:31.508Z,11.25
2023-04-24T04:02:33.295Z,12.25
2023-04-24T04:04:35.052Z,13.50
2023-04-24T04:06:38.865Z,11.50
2023-04-24T04:08:40.396Z,8.50
2023-04-24T04:10:41.976Z,10.00
2023-04-24T04:12:43.749Z,12.00
2023-04-24T04:14:45.238Z,11.00
2023-04-24T04:16:46.885Z,12.25
2023-04-24T04:18:48.578Z,10.50
2023-04-24T04:20:50.515Z,11.00
2023-04-24T04:22:53.467Z,11.00
2023-04-24T04:24:55.098Z,10.75
2023-04-24T04:26:56.607Z,10.00
2023-04-24T04:28:58.116Z,8.25
2023-04-24T04:30:59.781Z,12.50
2023-04-24T04:33:01.450Z,12.25
2023-04-24T04:35:03.287Z,13.00
2023-04-24T04:37:05.020Z,10.00
2023-04-24T04:39:08.458Z,12.00
2023-04-24T04:41:09.991Z,7.50
2023-04-24T04:43:11.620Z,10.75
2023-04-24T04:45:13.261Z,11.50
2023-04-24T04:47:14.920Z,9.00
2023-04-24T04:49:16.591Z,10.00
2023-04-24T04:51:18.213Z,9.50
2023-04-24T04:53:19.761Z,12.25
2023-04-24T04:55:22.699Z,11.00
2023-04-24T04:57:24.212Z,12.75
2023-04-24T04:59:25.859Z,12.25
2023-04-24T05:01:27.582Z,13.50
2023-04-24T05:03:29.280Z,12.25
2023-04-24T05:05:31.127Z,10.00
2023-04-24T05:07:32.728Z,15.25
2023-04-24T05:09:34.517Z,14.00
2023-04-24T05:11:37.633Z,13.00
2023-04-24T05:13:40.548Z,13.25
2023-04-24T05:15:42.858Z,14.00
2023-04-24T05:17:44.429Z,15.25
2023-04-24T05:19:46.371Z,10.00
2023-04-24T05:21:48.121Z,12.75
2023-04-24T05:23:49.766Z,12.25
2023-04-24T05:25:51.636Z,10.00
2023-04-24T05:27:54.533Z,11.00
2023-04-24T05:29:56.144Z,12.75
2023-04-24T05:31:57.827Z,12.00
2023-04-24T05:33:59.381Z,9.25
2023-04-24T05:36:00.944Z,12.00
2023-04-24T05:38:02.558Z,9.75
2023-04-24T05:40:04.843Z,9.50
2023-04-24T05:42:06.389Z,12.25
2023-04-24T05:44:09.371Z,9.50
2023-04-24T05:46:12.464Z,7.75
2023-04-24T05:48:14.088Z,9.25
2023-04-24T05:50:15.698Z,10.25
2023-04-24T05:52:17.307Z,11.00
2023-04-24T05:54:18.893Z,11.50
2023-04-24T05:56:20.635Z,12.00
2023-04-24T05:58:22.211Z,9.25
2023-04-24T06:00:26.064Z,11.75
2023-04-24T06:02:27.907Z,10.25
2023-04-24T06:04:29.721Z,7.50
2023-04-24T06:06:31.708Z,10.50
2023-04-24T06:08:33.679Z,8.00
2023-04-24T06:10:35.279Z,10.00
2023-04-24T06:12:36.844Z,10.25
2023-04-24T06:14:38.408Z,12.25
2023-04-24T06:16:43.629Z,8.00
2023-04-24T06:18:45.417Z,10.00
2023-04-24T06:20:47.458Z,9.25
2023-04-24T06:22:49.078Z,8.50
2023-04-24T06:24:50.680Z,9.25
2023-04-24T06:26:52.259Z,8.75
2023-04-24T06:28:54.188Z,11.25
2023-04-24T06:30:55.721Z,8.50
2023-04-24T06:33:03.134Z,8.00
2023-04-24T06:35:11.103Z,8.00
2023-04-24T06:37:12.707Z,9.00
2023-04-24T06:39:14.316Z,9.00
2023-04-24T06:41:15.850Z,9.75
2023-04-24T06:43:17.368Z,9.25
2023-04-24T06:45:19.276Z,6.00
2023-04-24T06:47:20.965Z,10.25
2023-04-24T06:49:23.848Z,10.75
2023-04-24T06:51:26.771Z,10.25
2023-04-24T06:53:28.322Z,9.75
2023-04-24T06:55:30.382Z,8.25
2023-04-24T06:57:32.361Z,6.75
2023-04-24T06:59:33.929Z,11.25
2023-04-24T07:01:35.455Z,9.00
2023-04-24T07:03:37.409Z,10.75
2023-04-24T07:05:40.798Z,12.00
2023-04-24T07:07:42.391Z,9.75
2023-04-24T07:09:44.331Z,15.25
2023-04-24T07:11:46.230Z,16.75
2023-04-24T07:13:47.763Z,17.75
2023-04-24T07:15:49.995Z,16.50
2023-04-24T07:17:51.716Z,15.75
2023-04-24T07:19:53.268Z,14.00
2023-04-24T07:21:56.252Z,12.00
2023-04-24T07:23:57.830Z,10.75
2023-04-24T07:25:59.522Z,11.00
2023-04-24T07:28:01.175Z,12.50
2023-04-24T07:30:02.861Z,7.00
2023-04-24T07:32:04.962Z,14.50
2023-04-24T07:34:06.648Z,13.25
2023-04-24T07:36:08.427Z,10.75
2023-04-24T07:38:11.310Z,15.25
2023-04-24T07:40:13.164Z,12.00
2023-04-24T07:42:14.820Z,8.00
2023-04-24T07:44:16.397Z,10.75
2023-04-24T07:46:18.133Z,10.75
2023-04-24T07:48:19.772Z,10.25
2023-04-24T07:50:21.754Z,9.75
2023-04-24T07:52:23.399Z,9.00
2023-04-24T07:54:26.690Z,10.00
2023-04-24T07:56:28.325Z,7.75
2023-04-24T07:58:30.065Z,7.25
2023-04-24T08:00:31.838Z,7.00
2023-04-24T08:02:33.689Z,9.75
2023-04-24T08:04:35.589Z,8.00
2023-04-24T08:06:37.185Z,7.00
2023-04-24T08:08:38.754Z,6.50
2023-04-24T08:10:41.758Z,7.00
2023-04-24T08:12:43.286Z,5.50
2023-04-24T08:14:45.065Z,6.25
2023-04-24T08:16:46.627Z,7.50
2023-04-24T08:18:48.285Z,7.00
2023-04-24T08:20:49.901Z,7.00
2023-04-24T08:22:51.424Z,4.40
2023-04-24T08:24:52.965Z,5.00
2023-04-24T08:26:56.188Z,6.20
2023-04-24T08:28:57.920Z,6.80
2023-04-24T08:30:59.849Z,5.60
2023-04-24T08:33:01.713Z,5.60
2023-04-24T08:35:03.608Z,5.00
2023-04-24T08:37:05.257Z,6.20
2023-04-24T08:39:06.911Z,4.40
2023-04-24T08:41:09.729Z,3.60
2023-04-24T08:43:13.471Z,7.40
2023-04-24T08:45:15.497Z,4.60
2023-04-24T08:47:17.475Z,6.20
2023-04-24T08:49:19.897Z,3.20
2023-04-24T08:51:21.974Z,4.00
2023-04-24T08:53:25.810Z,2.60
2023-04-24T08:55:27.525Z,3.40
2023-04-24T08:57:29.696Z,6.00
2023-04-24T08:59:33.443Z,4.60
2023-04-24T09:01:38.120Z,3.20
2023-04-24T09:03:41.088Z,1.40
2023-04-24T09:05:44.691Z,5.20
2023-04-24T09:07:50.381Z,1.80
2023-04-24T09:09:53.270Z,4.00
2023-04-24T09:11:54.824Z,4.80
2023-04-24T09:13:57.578Z,4.40
2023-04-24T09:16:00.766Z,3.20
2023-04-24T09:18:02.473Z,3.20
2023-04-24T09:20:04.932Z,4.60
2023-04-24T09:22:07.090Z,5.20
2023-04-24T09:24:16.149Z,2.60
2023-04-24T09:26:17.895Z,4.60
2023-04-24T09:28:19.666Z,3.00
2023-04-24T09:30:22.782Z,3.80
2023-04-24T09:32:26.523Z,4.00
2023-04-24T09:34:28.587Z,3.00
2023-04-24T09:36:31.722Z,4.20
2023-04-24T09:38:35.074Z,3.20
2023-04-24T09:40:36.781Z,4.00
2023-04-24T09:42:38.672Z,3.60
2023-04-24T09:44:40.272Z,4.00
2023-04-24T09:46:43.107Z,3.20
2023-04-24T09:48:46.550Z,2.60
2023-04-24T09:50:49.117Z,3.00
2023-04-24T09:52:58.117Z,1.80
2023-04-24T09:54:59.713Z,2.20
2023-04-24T09:57:01.292Z,1.00
2023-04-24T09:59:06.026Z,1.80
2023-04-24T10:01:07.700Z,1.80
2023-04-24T10:03:09.527Z,1.80
2023-04-24T10:05:13.171Z,1.00
2023-04-24T10:07:21.925Z,4.40
2023-04-24T10:14:19.527Z,5.40
2023-04-24T10:19:39.963Z,1.00
2023-04-24T10:21:42.159Z,1.00
2023-04-24T10:23:44.118Z,1.60
2023-04-24T10:25:46.274Z,0.80
2023-04-24T10:27:51.981Z,1.00
2023-04-24T10:29:54.528Z,1.00
2023-04-24T10:31:56.678Z,0.40
2023-04-24T10:34:00.919Z,1.00
2023-04-24T10:36:03.154Z,1.00
2023-04-24T10:38:10.343Z,0.80
2023-04-24T10:40:13.361Z,2.00
2023-04-24T10:42:15.718Z,1.00
2023-04-24T10:44:17.445Z,1.00
2023-04-24T10:46:21.380Z,1.00
2023-04-24T10:48:27.835Z,1.75
2023-04-24T10:50:42.531Z,1.00
2023-04-24T10:52:47.697Z,1.00
2023-04-24T10:54:50.605Z,1.25
2023-04-24T10:56:52.873Z,1.00
2023-04-24T10:58:54.467Z,1.00
2023-04-24T11:00:57.666Z,1.00
2023-04-24T11:02:59.447Z,1.00
2023-04-24T11:05:04.449Z,2.00
2023-04-24T11:07:06.534Z,1.75
2023-04-24T11:09:09.743Z,1.00
2023-04-24T11:11:14.205Z,1.75
2023-04-24T11:13:16.791Z,1.75
2023-04-24T11:15:18.648Z,2.75
2023-04-24T11:17:30.261Z,1.00
2023-04-24T11:19:31.872Z,0.75
2023-04-24T11:21:40.630Z,1.00
2023-04-24T11:23:42.251Z,0.25
2023-04-24T11:25:43.917Z,0.25
2023-04-24T11:27:46.819Z,0.00
2023-04-24T11:29:49.648Z,0.00
2023-04-24T11:31:51.386Z,0.00
2023-04-24T11:33:53.880Z,0.00
2023-04-24T11:35:55.656Z,0.00
2023-04-24T11:40:02.824Z,1.00
2023-04-24T11:42:05.139Z,1.00
2023-04-24T11:44:10.650Z,0.00
2023-04-24T11:46:12.278Z,0.25
2023-04-24T11:48:22.582Z,0.25
2023-04-24T11:50:26.057Z,2.00
2023-04-24T11:52:28.101Z,1.50
2023-04-24T11:54:29.980Z,0.25
2023-04-24T11:56:31.568Z,1.00
2023-04-24T11:58:35.940Z,0.00
2023-04-24T12:00:38.950Z,0.75
2023-04-24T12:02:40.833Z,0.00
2023-04-24T12:04:43.049Z,0.25
2023-04-24T12:07:00.373Z,0.00
2023-04-24T12:09:11.499Z,1.00
2023-04-24T12:11:19.145Z,1.00
2023-04-24T12:13:20.888Z,0.00
2023-04-24T12:15:24.066Z,1.00
2023-04-24T12:17:29.575Z,0.00
2023-04-24T12:19:31.361Z,0.75
2023-04-24T12:21:33.094Z,0.00
2023-04-24T12:23:35.680Z,0.00
2023-04-24T12:25:37.414Z,3.00
2023-04-24T12:27:39.131Z,0.00
2023-04-24T12:29:52.563Z,0.75
2023-04-24T12:31:55.114Z,1.00
2023-04-24T12:33:58.105Z,0.25
2023-04-24T12:35:59.821Z,0.75
2023-04-24T12:38:06.924Z,0.75
2023-04-24T12:40:11.106Z,1.00
2023-04-24T12:42:12.756Z,0.00
2023-04-24T12:44:14.387Z,0.25
2023-04-24T12:46:17.632Z,0.00
2023-04-24T12:48:19.917Z,0.50
2023-04-24T12:50:22.980Z,0.50
2023-04-24T12:52:25.210Z,0.25
2023-04-24T12:54:26.990Z,0.00
2023-04-24T12:56:28.914Z,0.50
2023-04-24T12:58:30.465Z,0.00
2023-04-24T13:00:32.625Z,0.00
2023-04-24T13:02:35.343Z,0.00
2023-04-24T13:04:37.073Z,0.00
2023-04-24T13:06:40.037Z,1.00
2023-04-24T13:08:41.876Z,1.00
2023-04-24T13:10:43.460Z,0.00
2023-04-24T13:12:45.088Z,0.00
2023-04-24T13:14:47.139Z,0.00
2023-04-24T13:16:49.201Z,0.50
2023-04-24T13:18:50.781Z,0.00
2023-04-24T13:20:52.583Z,0.25
2023-04-24T13:22:55.540Z,1.00
2023-04-24T13:24:57.381Z,1.00
2023-04-24T13:26:59.346Z,0.50
2023-04-24T13:29:00.996Z,1.00
2023-04-24T13:31:02.592Z,0.00
2023-04-24T13:33:04.493Z,1.00
2023-04-24T13:35:06.747Z,1.00
2023-04-24T13:37:08.373Z,1.00
2023-04-24T13:39:11.344Z,0.75
2023-04-24T13:41:12.966Z,1.00
2023-04-24T13:43:14.610Z,1.00
2023-04-24T13:45:24.600Z,1.00
2023-04-24T13:47:27.271Z,1.00
2023-04-24T13:49:29.244Z,2.00
2023-04-24T13:51:31.000Z,1.25
2023-04-24T13:53:32.655Z,1.00
2023-04-24T13:55:35.569Z,0.00
2023-04-24T13:57:37.154Z,0.00
2023-04-24T13:59:39.263Z,0.00
2023-04-24T14:01:40.850Z,0.00
2023-04-24T14:03:44.429Z,1.00
2023-04-24T14:05:51.277Z,1.00
2023-04-24T14:07:52.914Z,0.00
2023-04-24T14:09:54.461Z,1.00
2023-04-24T14:11:57.488Z,0.00
2023-04-24T14:13:59.060Z,0.00
2023-04-24T14:16:00.670Z,1.00
2023-04-24T14:18:04.895Z,0.00
2023-04-24T14:20:08.706Z,0.00
2023-04-24T14:22:10.899Z,0.50
2023-04-24T14:24:12.667Z,0.50
2023-04-24T14:26:14.249Z,0.00
2023-04-24T14:28:17.219Z,0.00
2023-04-24T14:30:18.870Z,0.00
2023-04-24T14:32:20.468Z,0.00
2023-04-24T14:34:22.085Z,0.00
2023-04-24T14:36:25.104Z,0.00
2023-04-24T14:38:26.801Z,0.00
2023-04-24T14:40:56.293Z,0.00
2023-04-24T14:42:50.098Z,0.00
2023-04-24T14:44:53.176Z,0.00
2023-04-24T14:46:54.889Z,0.00
2023-04-24T14:48:56.980Z,0.00
2023-04-24T14:50:59.158Z,0.00
2023-04-24T14:53:03.886Z,0.00
2023-04-24T14:55:06.384Z,1.00
2023-04-24T14:57:11.187Z,0.00
2023-04-24T14:59:16.306Z,0.00
2023-04-24T15:01:22.775Z,0.00
2023-04-24T15:03:27.555Z,0.00
2023-04-24T15:05:29.883Z,0.00
2023-04-24T15:07:31.701Z,0.00
2023-04-24T15:09:33.392Z,0.00
2023-04-24T15:11:35.237Z,0.00
2023-04-24T15:13:36.902Z,0.00
2023-04-24T15:15:38.564Z,0.00
2023-04-24T15:17:41.560Z,0.00
2023-04-24T15:19:43.185Z,0.00
2023-04-24T15:21:44.829Z,0.00
2023-04-24T15:23:46.818Z,0.00
2023-04-24T15:25:48.897Z,0.00
2023-04-24T15:27:50.517Z,1.00
2023-04-24T15:29:52.215Z,0.00
2023-04-24T15:31:53.827Z,0.00
2023-04-24T15:33:56.840Z,0.00
2023-04-24T15:35:58.542Z,0.00
2023-04-24T15:38:00.126Z,0.00
2023-04-24T15:40:01.975Z,0.00
2023-04-24T15:42:03.866Z,0.00
2023-04-24T15:44:05.458Z,0.00
2023-04-24T15:46:07.507Z,0.00
2023-04-24T15:48:09.259Z,0.00
2023-04-24T15:50:14.443Z,0.00
2023-04-24T15:52:16.337Z,0.00
2023-04-24T15:54:18.079Z,0.00
2023-04-24T15:56:19.850Z,0.00
2023-04-24T15:58:21.630Z,0.00
2023-04-24T16:00:23.498Z,0.00
2023-04-24T16:02:25.343Z,0.00
2023-04-24T16:04:27.400Z,0.80
2023-04-24T16:06:30.390Z,0.00
2023-04-24T16:08:32.159Z,0.00
2023-04-24T16:10:33.839Z,1.00
2023-04-24T16:12:35.612Z,0.20
2023-04-24T16:14:37.261Z,1.00
2023-04-24T16:16:38.774Z,1.00
2023-04-24T16:18:40.319Z,1.00
2023-04-24T16:20:41.906Z,1.60
2023-04-24T16:22:44.783Z,1.00
2023-04-24T16:24:47.053Z,1.00
2023-04-24T16:26:52.579Z,2.00
2023-04-24T16:28:54.258Z,1.00
2023-04-24T16:30:56.469Z,1.20
2023-04-24T16:32:58.093Z,1.00
2023-04-24T16:34:59.854Z,0.20
2023-04-24T16:37:01.448Z,0.40
2023-04-24T16:39:04.885Z,1.00
2023-04-24T16:41:06.419Z,1.20
2023-04-24T16:43:08.451Z,2.00
2023-04-24T16:45:10.718Z,2.00
2023-04-24T16:47:12.528Z,1.40
2023-04-24T16:49:14.670Z,1.00
2023-04-24T16:51:16.508Z,1.80
2023-04-24T16:53:18.093Z,1.00
2023-04-24T16:55:21.022Z,2.00
2023-04-24T16:57:22.781Z,2.00
2023-04-24T16:59:24.476Z,1.00
2023-04-24T17:01:26.557Z,1.40
2023-04-24T17:03:28.277Z,2.60
2023-04-24T17:05:29.991Z,2.00
2023-04-24T17:07:31.768Z,1.80
2023-04-24T17:09:33.421Z,3.00
2023-04-24T17:11:36.283Z,2.80
2023-04-24T17:13:38.052Z,1.00
2023-04-24T17:15:39.902Z,1.80
2023-04-24T17:17:41.706Z,2.80
2023-04-24T17:19:43.398Z,1.20
2023-04-24T17:21:44.929Z,1.80
2023-04-24T17:23:46.541Z,2.20
2023-04-24T17:25:48.878Z,3.00
2023-04-24T17:27:51.779Z,2.40
2023-04-24T17:29:53.358Z,2.00
2023-04-24T17:31:54.975Z,1.80
2023-04-24T17:33:56.603Z,2.60
2023-04-24T17:35:58.839Z,2.60
2023-04-24T17:38:00.591Z,3.20
2023-04-24T17:40:02.500Z,3.00
2023-04-24T17:42:05.576Z,3.60
2023-04-24T17:44:08.704Z,3.20
2023-04-24T17:46:10.781Z,3.60
2023-04-24T17:48:12.866Z,2.60
2023-04-24T17:50:14.625Z,4.00
2023-04-24T17:52:16.492Z,3.80
2023-04-24T17:54:18.521Z,4.00
2023-04-24T17:56:20.533Z,3.80
2023-04-24T17:58:22.171Z,2.60
2023-04-24T18:00:25.144Z,0.00
2023-04-24T18:02:26.904Z,3.00
2023-04-24T18:04:28.606Z,6.40
2023-04-24T18:06:30.339Z,8.00
2023-04-24T18:08:32.378Z,4.60
2023-04-24T18:10:34.839Z,2.80
2023-04-24T18:12:36.677Z,3.40
2023-04-24T18:14:38.565Z,7.80
2023-04-24T18:16:41.611Z,8.80
2023-04-24T18:18:43.471Z,3.80
2023-04-24T18:20:46.093Z,4.40
2023-04-24T18:22:48.217Z,4.40
2023-04-24T18:24:49.789Z,5.20
2023-04-24T18:26:51.342Z,4.60
2023-04-24T18:28:53.090Z,3.00
2023-04-24T18:30:54.741Z,2.40
2023-04-24T18:32:58.416Z,5.00
2023-04-24T18:35:00.190Z,3.60
2023-04-24T18:37:01.723Z,3.00
2023-04-24T18:39:03.313Z,3.00
2023-04-24T18:41:05.078Z,2.60
2023-04-24T18:43:07.074Z,2.20
2023-04-24T18:45:10.926Z,5.00
2023-04-24T18:47:13.961Z,2.00
2023-04-24T18:49:17.262Z,2.00
2023-04-24T18:51:18.907Z,2.00
2023-04-24T18:53:20.562Z,1.20
2023-04-24T18:55:22.456Z,2.00
2023-04-24T18:57:24.165Z,2.40
2023-04-24T18:59:25.909Z,1.60
2023-04-24T19:01:27.678Z,1.60
2023-04-24T19:03:29.399Z,1.20
2023-04-24T19:05:32.869Z,2.00
2023-04-24T19:07:34.392Z,1.00
2023-04-24T19:09:35.954Z,1.00
2023-04-24T19:11:38.078Z,1.00
2023-04-24T19:13:39.565Z,1.20
2023-04-24T19:15:41.118Z,1.00
2023-04-24T19:17:42.777Z,1.00
2023-04-24T19:19:44.501Z,1.00
2023-04-24T19:21:47.493Z,2.25
2023-04-24T19:23:49.311Z,1.00
2023-04-24T19:25:51.001Z,0.25
2023-04-24T19:27:52.626Z,1.25
2023-04-24T19:29:54.304Z,1.00
2023-04-24T19:31:55.884Z,1.00
2023-04-24T19:33:57.398Z,1.50
2023-04-24T19:36:00.122Z,1.75
2023-04-24T19:38:03.128Z,1.50
2023-04-24T19:40:06.080Z,2.00
2023-04-24T19:42:07.837Z,1.00
2023-04-24T19:44:09.519Z,1.00
2023-04-24T19:46:11.719Z,1.50
2023-04-24T19:48:13.606Z,3.25
2023-04-24T19:50:15.392Z,1.00
2023-04-24T19:52:17.021Z,0.25
2023-04-24T19:54:19.946Z,0.00
2023-04-24T19:56:21.501Z,1.00
2023-04-24T19:58:23.330Z,0.00
2023-04-24T20:00:24.931Z,0.00
2023-04-24T20:02:26.874Z,1.00
2023-04-24T20:04:28.776Z,0.50
2023-04-24T20:06:30.574Z,0.00
2023-04-24T20:08:32.230Z,0.00
2023-04-24T20:10:36.112Z,0.25
2023-04-24T20:12:38.163Z,0.00
2023-04-24T20:14:39.856Z,2.00
2023-04-24T20:16:41.534Z,1.00
2023-04-24T20:18:43.122Z,1.50
2023-04-24T20:20:44.729Z,0.00
2023-04-24T20:22:46.311Z,0.00
2023-04-24T20:24:48.093Z,0.75
2023-04-24T20:26:50.943Z,1.00
2023-04-24T20:28:52.643Z,1.00
2023-04-24T20:30:54.779Z,0.00
2023-04-24T20:32:56.536Z,0.50
2023-04-24T20:34:58.489Z,0.00
2023-04-24T20:37:00.024Z,0.75
2023-04-24T20:39:01.580Z,4.50
2023-04-24T20:41:03.427Z,1.00
2023-04-24T20:43:06.780Z,0.50
2023-04-24T20:45:09.351Z,0.00
2023-04-24T20:47:11.630Z,0.00
2023-04-24T20:49:13.211Z,2.00
2023-04-24T20:51:15.106Z,2.75
2023-04-24T20:53:16.749Z,2.00
2023-04-24T20:55:18.366Z,3.00
2023-04-24T20:57:20.026Z,1.25
2023-04-24T20:59:23.023Z,1.25
2023-04-24T21:01:24.773Z,1.00
2023-04-24T21:03:26.514Z,2.00
2023-04-24T21:05:28.075Z,3.75
2023-04-24T21:07:29.646Z,1.75
2023-04-24T21:09:31.371Z,2.25
2023-04-24T21:11:32.884Z,3.25
2023-04-24T21:13:34.397Z,3.25
2023-04-24T21:15:37.546Z,3.25
2023-04-24T21:17:39.171Z,2.00
2023-04-24T21:19:40.884Z,1.00
2023-04-24T21:21:42.418Z,2.00
2023-04-24T21:23:44.365Z,3.00
2023-04-24T21:25:46.043Z,5.25
2023-04-24T21:27:47.771Z,2.00
2023-04-24T21:29:49.685Z,2.00
2023-04-24T21:31:52.826Z,1.25
2023-04-24T21:33:54.411Z,2.75
2023-04-24T21:35:56.002Z,2.50
2023-04-24T21:37:57.565Z,2.50
2023-04-24T21:39:59.202Z,3.75
2023-04-24T21:42:00.756Z,2.25
2023-04-24T21:44:02.395Z,4.00
2023-04-24T21:46:04.285Z,3.75
2023-04-24T21:48:07.589Z,2.75
2023-04-24T21:50:10.419Z,2.00
2023-04-24T21:52:11.939Z,2.00
2023-04-24T21:54:13.617Z,1.50
2023-04-24T21:56:15.403Z,2.00
2023-04-24T21:58:17.777Z,3.00
2023-04-24T22:00:19.464Z,2.00
2023-04-24T22:02:21.186Z,2.50
2023-04-24T22:04:24.692Z,1.75
2023-04-24T22:06:26.448Z,1.50
2023-04-24T22:08:28.049Z,2.00
2023-04-24T22:10:29.756Z,2.50
2023-04-24T22:12:31.356Z,0.00
2023-04-24T22:14:33.023Z,1.00
2023-04-24T22:16:34.674Z,0.75
2023-04-24T22:18:46.666Z,1.25
2023-04-24T22:20:50.584Z,2.50
2023-04-24T22:22:52.173Z,4.00
2023-04-24T22:24:53.717Z,2.00
2023-04-24T22:26:55.507Z,1.00
2023-04-24T22:28:57.032Z,1.25
2023-04-24T22:30:58.659Z,2.00
2023-04-24T22:33:00.413Z,1.25
2023-04-24T22:35:02.153Z,1.75
2023-04-24T22:37:05.255Z,1.00
2023-04-24T22:39:06.961Z,2.00
2023-04-24T22:41:08.535Z,1.00
2023-04-24T22:43:10.164Z,1.00
2023-04-24T22:45:11.906Z,1.00
2023-04-24T22:47:13.488Z,1.75
2023-04-24T22:49:15.129Z,2.00
2023-04-24T22:51:16.793Z,2.00
2023-04-24T22:53:20.161Z,1.00
2023-04-24T22:55:21.962Z,1.50
2023-04-24T22:57:23.605Z,2.00
2023-04-24T22:59:25.145Z,3.25
2023-04-24T23:01:26.868Z,3.00
2023-04-24T23:03:28.982Z,1.75
2023-04-24T23:05:30.844Z,1.50
2023-04-24T23:07:32.446Z,2.00
2023-04-24T23:09:35.321Z,3.00
2023-04-24T23:11:36.852Z,3.00
2023-04-24T23:13:38.659Z,3.00
2023-04-24T23:15:40.560Z,3.00
2023-04-24T23:17:42.272Z,4.00
2023-04-24T23:19:43.884Z,4.25
2023-04-24T23:21:45.486Z,2.50
2023-04-24T23:23:47.132Z,4.00
2023-04-24T23:25:50.255Z,2.00
2023-04-24T23:27:51.825Z,2.25
2023-04-24T23:29:53.462Z,2.25
2023-04-24T23:31:55.009Z,2.75
2023-04-24T23:33:56.602Z,2.00
2023-04-24T23:35:58.426Z,2.25
2023-04-24T23:37:59.979Z,2.00
2023-04-24T23:40:01.867Z,3.50
2023-04-24T23:42:04.935Z,3.50
2023-04-24T23:44:06.551Z,4.00
2023-04-24T23:46:08.086Z,2.00
2023-04-24T23:48:09.603Z,3.50
2023-04-24T23:50:11.350Z,3.00
2023-04-24T23:52:12.947Z,3.00
2023-04-24T23:54:14.643Z,3.75
2023-04-24T23:56:16.387Z,2.00
2023-04-24T23:58:19.337Z,2.25
